Time;durP1;ratioP1;P1;durP2;ratioP2;P2;SDS_P1;SDS_P2;PMS_P1;PMS_P2;Temp;Humidity;BMP_temperature;BMP_pressure;BME280_temperature;BME280_humidity;BME280_pressure;Samples;Min_cycle;Max_cycle;Signal;HPM_P1;HPM_P2
2021/07/18 00:00:18;;;;;;;;;;;;;;;17.94;100.00;96250.41;1053942;28;19904;-50
2021/07/18 00:00:49;;;;;;;;;;;;;;;17.94;100.00;96247.75;1053847;28;19904;-51
2021/07/18 00:01:19;;;;;;;;;;;;;;;17.93;100.00;96246.13;1053986;28;20310;-50
2021/07/18 00:01:49;;;;;;;;;;;;;;;17.92;100.00;96244.53;1053479;28;19904;-51
2021/07/18 00:02:20;;;;;;;;;;;;;;;17.90;100.00;96249.25;1053586;28;19904;-51
2021/07/18 00:02:50;;;;;;;;;;;;;;;17.90;100.00;96249.25;1053648;28;20292;-50
2021/07/18 00:03:20;;;;;;;;;;;;;;;17.90;100.00;96249.25;1053599;28;19908;-51
2021/07/18 00:03:51;;;;;;;;;;;;;;;17.89;100.00;96245.78;1054070;28;20024;-52
2021/07/18 00:04:21;;;;;;;;;;;;;;;17.88;100.00;96246.00;1053536;28;19904;-50
2021/07/18 00:04:52;;;;;;;;;;;;;;;17.88;100.00;96246.81;1053494;28;19980;-52
2021/07/18 00:05:22;;;;;;;;;;;;;;;17.86;100.00;96246.25;1053744;28;19907;-49
2021/07/18 00:05:53;;;;;;;;;;;;;;;17.84;100.00;96243.03;1049550;28;19911;-48
2021/07/18 00:06:23;;;;;;;;;;;;;;;17.84;100.00;96244.84;1053512;28;19930;-49
2021/07/18 00:06:53;;;;;;;;;;;;;;;17.84;100.00;96243.03;1053545;28;19912;-52
2021/07/18 00:07:24;;;;;;;;;;;;;;;17.81;100.00;96245.34;1053582;28;19905;-49
2021/07/18 00:07:54;;;;;;;;;;;;;;;17.81;100.00;96242.66;1053565;28;20244;-51
2021/07/18 00:08:24;;;;;;;;;;;;;;;17.81;100.00;96242.66;1053622;28;20276;-50
2021/07/18 00:08:54;;;;;;;;;;;;;;;17.83;100.00;96240.59;1053494;28;19904;-53
2021/07/18 00:09:25;;;;;;;;;;;;;;;17.80;100.00;96243.75;1053531;28;19950;-50
2021/07/18 00:09:55;;;;;;;;;;;;;;;17.78;100.00;96235.97;1053517;28;20278;-49
2021/07/18 00:10:27;;;;;;;;;;;;;;;17.77;100.00;96237.03;1053720;28;19911;-49
2021/07/18 00:10:57;;;;;;;;;;;;;;;17.76;100.00;96241.56;1053890;28;20040;-49
2021/07/18 00:11:27;;;;;;;;;;;;;;;17.76;100.00;96235.41;1053881;28;19961;-49
2021/07/18 00:11:58;;;;;;;;;;;;;;;17.75;100.00;96237.25;1053802;28;20241;-48
2021/07/18 00:12:28;;;;;;;;;;;;;;;17.74;100.00;96242.81;1053967;28;19912;-51
2021/07/18 00:12:59;;;;;;;;;;;;;;;17.72;100.00;96234.28;1053940;28;19904;-52
2021/07/18 00:13:29;;;;;;;;;;;;;;;17.73;100.00;96238.53;1053830;28;19916;-52
2021/07/18 00:13:59;;;;;;;;;;;;;;;17.72;100.00;96237.75;1053910;28;20294;-50
2021/07/18 00:14:30;;;;;;;;;;;;;;;17.73;100.00;96236.69;1053731;28;20257;-48
2021/07/18 00:15:00;;;;;;;;;;;;;;;17.72;100.00;96235.06;1053880;28;19953;-49
2021/07/18 00:15:30;;;;;;;;;;;;;;;17.71;100.00;96237.97;1053420;28;19904;-48
2021/07/18 00:16:00;;;;;;;;;;;;;;;17.70;100.00;96236.34;1053842;28;20356;-48
2021/07/18 00:16:31;;;;;;;;;;;;;;;17.73;100.00;96236.69;1053966;28;20007;-48
2021/07/18 00:17:02;;;;;;;;;;;;;;;17.69;100.00;96232.88;1053773;28;19995;-50
2021/07/18 00:17:37;;;;;;;;;;;;;;;17.71;100.00;96244.09;1053812;28;19910;-51
2021/07/18 00:18:08;;;;;;;;;;;;;;;17.68;100.00;96236.59;1053881;28;20273;-49
2021/07/18 00:18:38;;;;;;;;;;;;;;;17.68;100.00;96235.78;1053705;28;19943;-49
2021/07/18 00:19:09;;;;;;;;;;;;;;;17.69;100.00;96246.19;1053831;28;19904;-49
2021/07/18 00:19:39;;;;;;;;;;;;;;;17.68;100.00;96241.13;1053722;28;19990;-51
2021/07/18 00:20:10;;;;;;;;;;;;;;;17.67;100.00;96242.97;1053831;28;19908;-50
2021/07/18 00:20:41;;;;;;;;;;;;;;;17.67;100.00;96244.81;1053865;28;19908;-48
2021/07/18 00:21:11;;;;;;;;;;;;;;;17.68;100.00;96244.56;1053920;28;19909;-49
2021/07/18 00:21:41;;;;;;;;;;;;;;;17.67;100.00;96242.97;1053799;28;19908;-49
2021/07/18 00:22:11;;;;;;;;;;;;;;;17.67;100.00;96242.16;1053885;28;19924;-53
2021/07/18 00:22:42;;;;;;;;;;;;;;;17.68;100.00;96244.56;1053845;28;19961;-53
2021/07/18 00:23:12;;;;;;;;;;;;;;;17.68;100.00;96238.44;1053804;28;19908;-49
2021/07/18 00:23:43;;;;;;;;;;;;;;;17.67;100.00;96245.63;1053835;28;19950;-50
2021/07/18 00:24:13;;;;;;;;;;;;;;;17.66;100.00;96246.69;1053760;28;19912;-49
2021/07/18 00:24:43;;;;;;;;;;;;;;;17.67;100.00;96250.13;1053807;28;19946;-51
2021/07/18 00:25:14;;;;;;;;;;;;;;;17.64;100.00;96242.63;1053984;28;19908;-52
2021/07/18 00:25:44;;;;;;;;;;;;;;;17.63;100.00;96246.31;1053371;28;19915;-50
2021/07/18 00:26:14;;;;;;;;;;;;;;;17.62;100.00;96239.41;1053440;28;19919;-48
2021/07/18 00:26:45;;;;;;;;;;;;;;;17.61;100.00;96245.75;1053570;28;20408;-50
2021/07/18 00:27:15;;;;;;;;;;;;;;;17.59;100.00;96246.78;1053424;28;19915;-50
2021/07/18 00:27:45;;;;;;;;;;;;;;;17.58;100.00;96244.38;1053804;28;20074;-48
2021/07/18 00:28:16;;;;;;;;;;;;;;;17.57;100.00;96248.91;1053443;28;19951;-49
2021/07/18 00:28:46;;;;;;;;;;;;;;;17.56;100.00;96244.59;1053541;28;19916;-51
2021/07/18 00:29:16;;;;;;;;;;;;;;;17.57;100.00;96240.91;1053484;28;19909;-50
2021/07/18 00:29:47;;;;;;;;;;;;;;;17.57;100.00;96245.44;1053537;28;19904;-49
2021/07/18 00:30:17;;;;;;;;;;;;;;;17.56;100.00;96244.59;1053776;28;19908;-49
2021/07/18 00:30:47;;;;;;;;;;;;;;;17.55;100.00;96242.19;1053771;28;20275;-50
2021/07/18 00:31:17;;;;;;;;;;;;;;;17.55;100.00;96248.34;1053926;28;19923;-52
2021/07/18 00:31:48;;;;;;;;;;;;;;;17.55;100.00;96242.19;1053853;28;19947;-49
2021/07/18 00:32:18;;;;;;;;;;;;;;;17.53;100.00;96239.75;1053760;28;19912;-50
2021/07/18 00:32:49;;;;;;;;;;;;;;;17.53;100.00;96244.28;1053845;28;19908;-48
2021/07/18 00:33:19;;;;;;;;;;;;;;;17.51;100.00;96239.19;1053740;28;20368;-48
2021/07/18 00:33:49;;;;;;;;;;;;;;;17.53;100.00;96244.28;1053857;28;19961;-48
2021/07/18 00:34:20;;;;;;;;;;;;;;;17.53;100.00;96237.09;1053500;28;19908;-50
2021/07/18 00:34:51;;;;;;;;;;;;;;;17.53;100.00;96245.09;1053775;28;19909;-51
2021/07/18 00:35:21;;;;;;;;;;;;;;;17.52;100.00;96243.47;1053773;28;19908;-51
2021/07/18 00:35:51;;;;;;;;;;;;;;;17.51;100.00;96243.72;1053856;28;20381;-50
2021/07/18 00:36:22;;;;;;;;;;;;;;;17.50;100.00;96242.09;1053745;28;20372;-51
2021/07/18 00:36:52;;;;;;;;;;;;;;;17.52;100.00;96242.66;1053519;28;19988;-48
2021/07/18 00:37:22;;;;;;;;;;;;;;;17.49;100.00;96235.13;1053375;28;19909;-52
2021/07/18 00:37:52;;;;;;;;;;;;;;;17.47;100.00;96235.38;1053500;28;19904;-50
2021/07/18 00:38:23;;;;;;;;;;;;;;;17.48;100.00;96245.00;1049131;28;19912;-50
2021/07/18 00:38:53;;;;;;;;;;;;;;;17.47;100.00;96243.38;1053393;28;20295;-49
2021/07/18 00:39:23;;;;;;;;;;;;;;;17.48;100.00;96236.22;1053442;28;19958;-53
2021/07/18 00:39:54;;;;;;;;;;;;;;;17.49;100.00;96248.44;1053416;28;19912;-49
2021/07/18 00:40:24;;;;;;;;;;;;;;;17.49;100.00;96243.13;1053727;28;20275;-50
2021/07/18 00:40:54;;;;;;;;;;;;;;;17.48;100.00;96244.19;1053761;28;19955;-51
2021/07/18 00:41:25;;;;;;;;;;;;;;;17.47;100.00;96245.22;1053447;28;20316;-51
2021/07/18 00:41:55;;;;;;;;;;;;;;;17.45;100.00;96239.34;1053499;28;19973;-49
2021/07/18 00:42:25;;;;;;;;;;;;;;;17.43;100.00;96244.06;1053412;28;20280;-48
2021/07/18 00:42:55;;;;;;;;;;;;;;;17.44;100.00;96243.03;1053500;28;20003;-47
2021/07/18 00:43:26;;;;;;;;;;;;;;;17.43;100.00;96241.41;1053770;28;19916;-49
2021/07/18 00:43:56;;;;;;;;;;;;;;;17.44;100.00;96237.72;1053402;28;20013;-52
2021/07/18 00:44:26;;;;;;;;;;;;;;;17.45;100.00;96239.34;1053329;28;20345;-51
2021/07/18 00:44:57;;;;;;;;;;;;;;;17.43;100.00;96244.91;1053492;28;19953;-49
2021/07/18 00:45:27;;;;;;;;;;;;;;;17.42;100.00;96245.94;1053365;28;19912;-49
2021/07/18 00:45:57;;;;;;;;;;;;;;;17.40;100.00;96237.38;1053828;28;20240;-50
2021/07/18 00:46:28;;;;;;;;;;;;;;;17.40;100.00;96243.50;1053735;28;19926;-51
2021/07/18 00:46:58;;;;;;;;;;;;;;;17.37;100.00;96238.66;1053282;28;19912;-49
2021/07/18 00:47:28;;;;;;;;;;;;;;;17.37;100.00;96235.19;1053748;28;19967;-52
2021/07/18 00:47:58;;;;;;;;;;;;;;;17.37;100.00;96240.53;1053406;28;19916;-49
2021/07/18 00:48:29;;;;;;;;;;;;;;;17.36;100.00;96237.03;1053425;28;19920;-49
2021/07/18 00:49:00;;;;;;;;;;;;;;;17.35;100.00;96237.25;1053427;28;19912;-48
2021/07/18 00:49:30;;;;;;;;;;;;;;;17.35;100.00;96238.06;1053426;28;19912;-49
2021/07/18 00:50:04;;;;;;;;;;;;;;;17.36;100.00;96238.88;1053690;28;19913;-49
2021/07/18 00:50:34;;;;;;;;;;;;;;;17.37;100.00;96240.53;1053451;28;19958;-48
2021/07/18 00:51:04;;;;;;;;;;;;;;;17.35;100.00;96245.25;1053359;28;19931;-49
2021/07/18 00:51:35;;;;;;;;;;;;;;;17.35;100.00;96240.72;1053355;28;19905;-51
2021/07/18 00:52:05;;;;;;;;;;;;;;;17.34;100.00;96240.97;1053413;28;20289;-50
2021/07/18 00:52:36;;;;;;;;;;;;;;;17.31;100.00;96241.44;1053689;28;20018;-51
2021/07/18 00:53:06;;;;;;;;;;;;;;;17.30;100.00;96237.19;1053667;28;19915;-48
2021/07/18 00:53:36;;;;;;;;;;;;;;;17.30;100.00;96239.84;1053708;28;19900;-48
2021/07/18 00:54:07;;;;;;;;;;;;;;;17.29;100.00;96239.00;1053478;28;19912;-50
2021/07/18 00:54:37;;;;;;;;;;;;;;;17.30;100.00;96237.97;1053346;28;19912;-49
2021/07/18 00:55:07;;;;;;;;;;;;;;;17.31;100.00;96238.78;1053437;28;19951;-52
2021/07/18 00:55:43;;;;;;;;;;;;;;;17.29;100.00;96238.22;1053447;28;20062;-50
2021/07/18 00:56:14;;;;;;;;;;;;;;;17.27;100.00;96235.78;1053431;28;19919;-50
2021/07/18 00:56:44;;;;;;;;;;;;;;;17.26;100.00;96241.34;1053429;28;19995;-49
2021/07/18 00:57:14;;;;;;;;;;;;;;;17.27;100.00;96233.13;1053461;28;19954;-49
2021/07/18 00:57:45;;;;;;;;;;;;;;;17.25;100.00;96232.56;1050123;28;19900;-50
2021/07/18 00:58:16;;;;;;;;;;;;;;;17.25;100.00;96234.38;1053458;28;19912;-48
2021/07/18 00:58:48;;;;;;;;;;;;;;;17.25;100.00;96234.38;1053361;28;19912;-49
2021/07/18 00:59:19;;;;;;;;;;;;;;;17.22;100.00;96235.69;1053392;28;19967;-49
2021/07/18 00:59:49;;;;;;;;;;;;;;;17.21;100.00;96234.84;1053456;28;19955;-50
2021/07/18 01:00:19;;;;;;;;;;;;;;;17.20;100.00;96235.09;1049168;28;19912;-51
2021/07/18 01:00:50;;;;;;;;;;;;;;;17.21;100.00;96228.75;1049231;28;19913;-50
2021/07/18 01:01:21;;;;;;;;;;;;;;;17.22;100.00;96238.34;1049169;28;20015;-50
2021/07/18 01:01:51;;;;;;;;;;;;;;;17.20;100.00;96235.09;1049415;28;20003;-50
2021/07/18 01:02:22;;;;;;;;;;;;;;;17.23;100.00;96237.28;1049186;28;19918;-50
2021/07/18 01:02:52;;;;;;;;;;;;;;;17.24;100.00;96228.28;1049242;28;19931;-48
2021/07/18 01:03:22;;;;;;;;;;;;;;;17.22;100.00;96239.16;1049358;28;19912;-52
2021/07/18 01:03:53;;;;;;;;;;;;;;;17.21;100.00;96234.84;1053507;28;19908;-49
2021/07/18 01:04:23;;;;;;;;;;;;;;;17.21;100.00;96234.84;1053455;28;19908;-51
2021/07/18 01:04:53;;;;;;;;;;;;;;;17.21;100.00;96234.06;1053789;28;19919;-52
2021/07/18 01:05:24;;;;;;;;;;;;;;;17.21;100.00;96239.38;1053711;28;19912;-49
2021/07/18 01:05:55;;;;;;;;;;;;;;;17.20;100.00;96238.59;1053737;28;19939;-54
2021/07/18 01:06:25;;;;;;;;;;;;;;;17.20;100.00;96235.91;1053739;28;19912;-51
2021/07/18 01:06:55;;;;;;;;;;;;;;;17.21;100.00;96231.41;1053729;28;20375;-54
2021/07/18 01:07:26;;;;;;;;;;;;;;;17.21;100.00;96234.06;1053563;28;19912;-48
2021/07/18 01:07:56;;;;;;;;;;;;;;;17.20;100.00;96235.91;1053735;28;19946;-49
2021/07/18 01:08:26;;;;;;;;;;;;;;;17.19;100.00;96239.63;1053686;28;19912;-52
2021/07/18 01:08:57;;;;;;;;;;;;;;;17.21;100.00;96234.84;1053816;28;19916;-50
2021/07/18 01:09:28;;;;;;;;;;;;;;;17.19;100.00;96234.28;1053675;28;19912;-49
2021/07/18 01:09:58;;;;;;;;;;;;;;;17.20;100.00;96232.44;1053333;28;20372;-48
2021/07/18 01:10:28;;;;;;;;;;;;;;;17.18;100.00;96229.22;1053305;28;19998;-50
2021/07/18 01:10:58;;;;;;;;;;;;;;;17.19;100.00;96228.97;1053393;28;19916;-49
2021/07/18 01:11:29;;;;;;;;;;;;;;;17.21;100.00;96223.41;1053358;28;19927;-48
2021/07/18 01:11:59;;;;;;;;;;;;;;;17.22;100.00;96222.38;1053691;28;19916;-50
2021/07/18 01:12:30;;;;;;;;;;;;;;;17.22;100.00;96222.38;1053816;28;19912;-48
2021/07/18 01:13:00;;;;;;;;;;;;;;;17.21;100.00;96226.06;1053687;28;19935;-47
2021/07/18 01:13:30;;;;;;;;;;;;;;;17.22;100.00;96228.50;1053664;28;19908;-49
2021/07/18 01:14:00;;;;;;;;;;;;;;;17.22;100.00;96227.69;1053365;28;19916;-50
2021/07/18 01:14:31;;;;;;;;;;;;;;;17.23;100.00;96232.78;1053205;28;19912;-52
2021/07/18 01:15:01;;;;;;;;;;;;;;;17.23;100.00;96224.81;1049276;28;20285;-48
2021/07/18 01:15:31;;;;;;;;;;;;;;;17.24;100.00;96225.59;1049179;28;19927;-48
2021/07/18 01:16:02;;;;;;;;;;;;;;;17.25;100.00;96224.56;1049055;28;19917;-51
2021/07/18 01:16:32;;;;;;;;;;;;;;;17.24;100.00;96225.59;1049291;28;20285;-49
2021/07/18 01:17:02;;;;;;;;;;;;;;;17.25;100.00;96229.91;1053239;28;19912;-49
2021/07/18 01:17:32;;;;;;;;;;;;;;;17.21;100.00;96226.88;1053327;28;20030;-49
2021/07/18 01:18:03;;;;;;;;;;;;;;;17.23;100.00;96223.97;1053310;28;19919;-51
2021/07/18 01:18:34;;;;;;;;;;;;;;;17.23;100.00;96226.63;1049095;28;19912;-51
2021/07/18 01:19:05;;;;;;;;;;;;;;;17.25;100.00;96229.06;1049060;28;19931;-51
2021/07/18 01:19:35;;;;;;;;;;;;;;;17.23;100.00;96222.16;1049206;28;19991;-52
2021/07/18 01:20:07;;;;;;;;;;;;;;;17.23;100.00;96229.31;1045032;28;19906;-48
2021/07/18 01:20:38;;;;;;;;;;;;;;;17.24;100.00;96236.25;1049659;28;19950;-50
2021/07/18 01:21:09;;;;;;;;;;;;;;;17.25;100.00;96223.75;1053341;28;19904;-48
2021/07/18 01:21:39;;;;;;;;;;;;;;;17.24;100.00;96225.59;1049508;28;20357;-50
2021/07/18 01:22:09;;;;;;;;;;;;;;;17.22;100.00;96231.16;1053303;28;19926;-49
2021/07/18 01:22:40;;;;;;;;;;;;;;;17.21;100.00;96229.53;1048944;28;19981;-50
2021/07/18 01:23:10;;;;;;;;;;;;;;;17.26;100.00;96231.50;1049325;28;20373;-48
2021/07/18 01:23:40;;;;;;;;;;;;;;;17.26;100.00;96230.69;1053391;28;19946;-49
2021/07/18 01:24:11;;;;;;;;;;;;;;;17.25;100.00;96226.41;1053104;28;19904;-51
2021/07/18 01:24:42;;;;;;;;;;;;;;;17.24;100.00;96230.94;1049232;28;19912;-51
2021/07/18 01:25:12;;;;;;;;;;;;;;;17.21;100.00;96226.88;1049090;28;20003;-53
2021/07/18 01:25:42;;;;;;;;;;;;;;;17.21;100.00;96232.19;1049243;28;19901;-50
2021/07/18 01:26:13;;;;;;;;;;;;;;;17.22;100.00;96228.50;1049121;28;19905;-51
2021/07/18 01:26:43;;;;;;;;;;;;;;;17.22;100.00;96231.16;1049129;28;19982;-52
2021/07/18 01:27:13;;;;;;;;;;;;;;;17.23;100.00;96229.31;1053371;28;19912;-49
2021/07/18 01:27:44;;;;;;;;;;;;;;;17.22;100.00;96227.69;1053846;28;19994;-50
2021/07/18 01:28:15;;;;;;;;;;;;;;;17.21;100.00;96228.75;1053465;28;20403;-50
2021/07/18 01:28:45;;;;;;;;;;;;;;;17.22;100.00;96231.16;1053456;28;19912;-52
2021/07/18 01:29:16;;;;;;;;;;;;;;;17.21;100.00;96231.41;1053289;28;19912;-49
2021/07/18 01:29:46;;;;;;;;;;;;;;;17.22;100.00;96225.03;1053447;28;19912;-49
2021/07/18 01:30:16;;;;;;;;;;;;;;;17.25;100.00;96229.91;1053713;28;19933;-49
2021/07/18 01:30:47;;;;;;;;;;;;;;;17.23;100.00;96221.31;1053629;28;19992;-49
2021/07/18 01:31:17;;;;;;;;;;;;;;;17.25;100.00;96223.75;1053287;28;19912;-49
2021/07/18 01:31:47;;;;;;;;;;;;;;;17.26;100.00;96226.16;1053320;28;19916;-49
2021/07/18 01:32:18;;;;;;;;;;;;;;;17.25;100.00;96224.56;1053395;28;19912;-49
2021/07/18 01:32:48;;;;;;;;;;;;;;;17.26;100.00;96231.50;1053369;28;19908;-49
2021/07/18 01:33:18;;;;;;;;;;;;;;;17.28;100.00;96223.28;1053831;28;19919;-51
2021/07/18 01:33:49;;;;;;;;;;;;;;;17.23;100.00;96223.97;1054199;28;19912;-51
2021/07/18 01:34:19;;;;;;;;;;;;;;;17.22;100.00;96219.72;1053891;28;19919;-50
2021/07/18 01:34:49;;;;;;;;;;;;;;;17.22;100.00;96231.16;1053296;28;19908;-52
2021/07/18 01:35:20;;;;;;;;;;;;;;;17.25;100.00;96231.72;1053601;28;19954;-49
2021/07/18 01:35:50;;;;;;;;;;;;;;;17.28;100.00;96229.44;1053620;28;20368;-52
2021/07/18 01:36:20;;;;;;;;;;;;;;;17.25;100.00;96232.56;1049294;28;19913;-51
2021/07/18 01:36:51;;;;;;;;;;;;;;;17.27;100.00;96229.66;1053663;28;19966;-52
2021/07/18 01:37:21;;;;;;;;;;;;;;;17.25;100.00;96229.91;1053533;28;20257;-49
2021/07/18 01:37:51;;;;;;;;;;;;;;;17.24;100.00;96236.25;1053450;28;19951;-49
2021/07/18 01:38:22;;;;;;;;;;;;;;;17.23;100.00;96234.63;1053804;28;19919;-49
2021/07/18 01:38:52;;;;;;;;;;;;;;;17.23;100.00;96237.28;1053895;28;19961;-50
2021/07/18 01:39:22;;;;;;;;;;;;;;;17.21;100.00;96239.38;1053447;28;19944;-51
2021/07/18 01:39:52;;;;;;;;;;;;;;;17.20;100.00;96235.91;1053554;28;19915;-52
2021/07/18 01:40:23;;;;;;;;;;;;;;;17.19;100.00;96228.19;1053623;28;19916;-50
2021/07/18 01:40:53;;;;;;;;;;;;;;;17.19;100.00;96236.97;1053529;28;19968;-51
2021/07/18 01:41:23;;;;;;;;;;;;;;;17.20;100.00;96229.78;1053912;28;19967;-51
2021/07/18 01:41:54;;;;;;;;;;;;;;;17.20;100.00;96224.44;1053650;28;19969;-51
2021/07/18 01:42:25;;;;;;;;;;;;;;;17.19;100.00;96228.97;1053513;28;20337;-49
2021/07/18 01:42:55;;;;;;;;;;;;;;;17.21;100.00;96231.41;1053526;28;19956;-50
2021/07/18 01:43:25;;;;;;;;;;;;;;;17.20;100.00;96232.44;1053430;28;19908;-52
2021/07/18 01:43:56;;;;;;;;;;;;;;;17.21;100.00;96226.06;1053585;28;20367;-50
2021/07/18 01:44:26;;;;;;;;;;;;;;;17.18;100.00;96230.00;1049113;28;19908;-49
2021/07/18 01:44:56;;;;;;;;;;;;;;;17.17;100.00;96228.41;1049380;28;19912;-48
2021/07/18 01:45:27;;;;;;;;;;;;;;;17.17;100.00;96231.06;1049465;28;20462;-48
2021/07/18 01:45:57;;;;;;;;;;;;;;;17.19;100.00;96236.16;1053715;28;19971;-50
2021/07/18 01:46:28;;;;;;;;;;;;;;;17.20;100.00;96227.09;1053577;28;19909;-50
2021/07/18 01:46:58;;;;;;;;;;;;;;;17.18;100.00;96230.00;1053342;28;19912;-52
2021/07/18 01:47:29;;;;;;;;;;;;;;;17.16;100.00;96229.44;1053489;28;20392;-49
2021/07/18 01:47:59;;;;;;;;;;;;;;;17.16;100.00;96225.97;1053533;28;20222;-49
2021/07/18 01:48:29;;;;;;;;;;;;;;;17.15;100.00;96235.78;1053521;28;20003;-52
2021/07/18 01:49:00;;;;;;;;;;;;;;;17.15;100.00;96221.69;1053823;28;20284;-49
2021/07/18 01:49:30;;;;;;;;;;;;;;;17.17;100.00;96227.56;1053889;28;19908;-49
2021/07/18 01:50:00;;;;;;;;;;;;;;;17.19;100.00;96233.50;1053980;28;19915;-49
2021/07/18 01:50:32;;;;;;;;;;;;;;;17.18;100.00;96235.31;1054122;28;19908;-49
2021/07/18 01:51:02;;;;;;;;;;;;;;;17.18;100.00;96240.66;1054103;28;19908;-51
2021/07/18 01:51:32;;;;;;;;;;;;;;;17.18;100.00;96230.00;1053963;28;19908;-49
2021/07/18 01:52:03;;;;;;;;;;;;;;;17.16;100.00;96231.31;1053801;28;20369;-50
2021/07/18 01:52:33;;;;;;;;;;;;;;;17.13;100.00;96227.25;1053855;28;19908;-50
2021/07/18 01:53:04;;;;;;;;;;;;;;;17.13;100.00;96232.56;1053942;28;19997;-49
2021/07/18 01:53:34;;;;;;;;;;;;;;;17.14;100.00;96228.06;1053864;28;19915;-51
2021/07/18 01:54:05;;;;;;;;;;;;;;;17.12;100.00;96222.97;1053769;28;20254;-52
2021/07/18 01:54:36;;;;;;;;;;;;;;;17.12;100.00;96224.81;1053719;28;19911;-49
2021/07/18 01:55:07;;;;;;;;;;;;;;;17.07;100.00;96222.88;1054059;28;19965;-52
2021/07/18 01:55:37;;;;;;;;;;;;;;;17.08;100.00;96221.84;1053954;28;20415;-52
2021/07/18 01:56:07;;;;;;;;;;;;;;;17.12;100.00;96224.81;1053884;28;19928;-49
2021/07/18 01:56:38;;;;;;;;;;;;;;;17.11;100.00;96223.19;1053841;28;19908;-50
2021/07/18 01:57:14;;;;;;;;;;;;;;;17.12;100.00;96227.47;1053654;28;20352;-49
2021/07/18 01:57:44;;;;;;;;;;;;;;;17.09;100.00;96230.63;1053792;28;20341;-49
2021/07/18 01:58:15;;;;;;;;;;;;;;;17.08;100.00;96218.34;1053257;28;19979;-50
2021/07/18 01:58:48;;;;;;;;;;;;;;;17.10;100.00;96221.59;1052894;28;19910;-50
2021/07/18 01:59:18;;;;;;;;;;;;;;;17.09;100.00;96219.97;1053396;28;19913;-53
2021/07/18 01:59:49;;;;;;;;;;;;;;;17.08;100.00;96221.84;1053529;28;19959;-49
2021/07/18 02:00:19;;;;;;;;;;;;;;;17.10;100.00;96222.41;1053913;28;19919;-51
2021/07/18 02:00:49;;;;;;;;;;;;;;;17.10;100.00;96221.59;1053892;28;19966;-52
2021/07/18 02:01:23;;;;;;;;;;;;;;;17.11;100.00;96215.22;1053757;28;19912;-52
2021/07/18 02:01:53;;;;;;;;;;;;;;;17.15;100.00;96225.16;1053518;28;19908;-51
2021/07/18 02:02:24;;;;;;;;;;;;;;;17.14;100.00;96228.88;1049285;28;19991;-51
2021/07/18 02:02:54;;;;;;;;;;;;;;;17.15;100.00;96224.34;1049310;28;19919;-52
2021/07/18 02:03:24;;;;;;;;;;;;;;;17.13;100.00;96221.94;1049331;28;19912;-50
2021/07/18 02:03:55;;;;;;;;;;;;;;;17.13;100.00;96226.44;1053500;28;19912;-48
2021/07/18 02:04:25;;;;;;;;;;;;;;;17.10;100.00;96225.06;1053765;28;20378;-48
2021/07/18 02:04:55;;;;;;;;;;;;;;;17.10;100.00;96219.75;1053764;28;19912;-49
2021/07/18 02:05:26;;;;;;;;;;;;;;;17.10;100.00;96224.25;1053923;28;19948;-48
2021/07/18 02:05:56;;;;;;;;;;;;;;;17.11;100.00;96225.84;1053890;28;19912;-48
2021/07/18 02:06:26;;;;;;;;;;;;;;;17.11;100.00;96217.88;1053282;28;19908;-49
2021/07/18 02:06:57;;;;;;;;;;;;;;;17.14;100.00;96225.38;1053427;28;20001;-49
2021/07/18 02:07:27;;;;;;;;;;;;;;;17.16;100.00;96223.31;1053454;28;19957;-49
2021/07/18 02:07:57;;;;;;;;;;;;;;;17.13;100.00;96232.56;1053336;28;20405;-49
2021/07/18 02:08:28;;;;;;;;;;;;;;;17.10;100.00;96227.72;1053986;28;19915;-49
2021/07/18 02:08:59;;;;;;;;;;;;;;;17.12;100.00;96228.28;1054039;28;19912;-52
2021/07/18 02:09:29;;;;;;;;;;;;;;;17.15;100.00;96227.00;1053778;28;19912;-51
2021/07/18 02:10:00;;;;;;;;;;;;;;;17.15;100.00;96221.69;1053729;28;19915;-53
2021/07/18 02:10:30;;;;;;;;;;;;;;;17.13;100.00;96232.56;1053631;28;19912;-51
2021/07/18 02:11:00;;;;;;;;;;;;;;;17.11;100.00;96228.53;1053475;28;19919;-52
2021/07/18 02:11:30;;;;;;;;;;;;;;;17.10;100.00;96224.25;1053577;28;19919;-51
2021/07/18 02:12:03;;;;;;;;;;;;;;;17.10;100.00;96227.72;1053159;28;20418;-51
2021/07/18 02:12:33;;;;;;;;;;;;;;;17.09;100.00;96227.94;1053151;28;20396;-52
2021/07/18 02:13:05;;;;;;;;;;;;;;;17.09;100.00;96225.28;1053242;28;19919;-48
2021/07/18 02:13:35;;;;;;;;;;;;;;;17.10;100.00;96232.25;1053252;28;20397;-50
2021/07/18 02:14:06;;;;;;;;;;;;;;;17.09;100.00;96231.41;1053412;28;19912;-52
2021/07/18 02:14:39;;;;;;;;;;;;;;;17.10;100.00;96229.59;1053391;28;19952;-51
2021/07/18 02:15:10;;;;;;;;;;;;;;;17.11;100.00;96228.53;1053489;28;19912;-51
2021/07/18 02:15:40;;;;;;;;;;;;;;;17.13;100.00;96231.78;1053436;28;20253;-48
2021/07/18 02:16:10;;;;;;;;;;;;;;;17.12;100.00;96228.28;1053488;28;19916;-48
2021/07/18 02:16:41;;;;;;;;;;;;;;;17.12;100.00;96232.81;1053511;28;19916;-52
2021/07/18 02:17:11;;;;;;;;;;;;;;;17.08;100.00;96228.97;1053373;28;20399;-49
2021/07/18 02:17:41;;;;;;;;;;;;;;;17.10;100.00;96225.06;1053497;28;19912;-51
2021/07/18 02:18:12;;;;;;;;;;;;;;;17.12;100.00;96222.16;1053648;28;19912;-49
2021/07/18 02:18:42;;;;;;;;;;;;;;;17.12;100.00;96227.47;1053339;28;19908;-50
2021/07/18 02:19:13;;;;;;;;;;;;;;;17.12;100.00;96227.47;1053518;28;19924;-52
2021/07/18 02:19:43;;;;;;;;;;;;;;;17.13;100.00;96231.78;1053147;28;19996;-51
2021/07/18 02:20:15;;;;;;;;;;;;;;;17.15;100.00;96224.34;1053095;28;20253;-53
2021/07/18 02:20:45;;;;;;;;;;;;;;;17.15;100.00;96224.34;1053217;28;19941;-50
2021/07/18 02:21:16;;;;;;;;;;;;;;;17.12;100.00;96224.81;1053150;28;20392;-48
2021/07/18 02:21:46;;;;;;;;;;;;;;;17.10;100.00;96226.91;1053324;28;20276;-48
2021/07/18 02:22:18;;;;;;;;;;;;;;;17.07;100.00;96228.19;1053443;28;20367;-51
2021/07/18 02:22:50;;;;;;;;;;;;;;;17.12;100.00;96230.94;1053134;28;20345;-51
2021/07/18 02:23:21;;;;;;;;;;;;;;;17.08;100.00;96228.97;1053111;28;20384;-52
2021/07/18 02:23:51;;;;;;;;;;;;;;;17.07;100.00;96227.38;1053190;28;19998;-49
2021/07/18 02:24:21;;;;;;;;;;;;;;;17.10;100.00;96232.25;1052984;28;20005;-51
2021/07/18 02:24:52;;;;;;;;;;;;;;;17.09;100.00;96218.13;1053350;28;20439;-50
2021/07/18 02:25:22;;;;;;;;;;;;;;;17.09;100.00;96222.63;1053376;28;20265;-52
2021/07/18 02:25:53;;;;;;;;;;;;;;;17.10;100.00;96221.59;1053337;28;19935;-49
2021/07/18 02:26:26;;;;;;;;;;;;;;;17.09;100.00;96219.97;1053449;28;19934;-51
2021/07/18 02:26:57;;;;;;;;;;;;;;;17.09;100.00;96226.09;1053335;28;19908;-52
2021/07/18 02:27:27;;;;;;;;;;;;;;;17.07;100.00;96224.72;1053317;28;19908;-50
2021/07/18 02:27:57;;;;;;;;;;;;;;;17.04;100.00;96226.00;1053424;28;19915;-52
2021/07/18 02:28:28;;;;;;;;;;;;;;;17.03;100.00;96222.50;1053340;28;19905;-50
2021/07/18 02:28:58;;;;;;;;;;;;;;;17.09;100.00;96222.63;1053058;28;20353;-53
2021/07/18 02:29:28;;;;;;;;;;;;;;;17.05;100.00;96223.09;1053229;28;20386;-51
2021/07/18 02:29:59;;;;;;;;;;;;;;;17.05;100.00;96223.09;1049047;28;19916;-49
2021/07/18 02:30:29;;;;;;;;;;;;;;;17.05;100.00;96225.75;1048920;28;19916;-50
2021/07/18 02:31:04;;;;;;;;;;;;;;;17.08;100.00;96228.97;1053097;28;19908;-49
2021/07/18 02:31:34;;;;;;;;;;;;;;;17.06;100.00;96229.22;1053167;28;20415;-53
2021/07/18 02:32:04;;;;;;;;;;;;;;;17.08;100.00;96235.13;1053078;28;20019;-52
2021/07/18 02:32:35;;;;;;;;;;;;;;;17.08;100.00;96231.66;1053124;28;19975;-52
2021/07/18 02:33:05;;;;;;;;;;;;;;;17.07;100.00;96228.19;1053050;28;19904;-50
2021/07/18 02:33:36;;;;;;;;;;;;;;;17.05;100.00;96228.41;1048890;28;19905;-49
2021/07/18 02:34:06;;;;;;;;;;;;;;;17.07;100.00;96232.72;1053155;28;19904;-49
2021/07/18 02:34:36;;;;;;;;;;;;;;;17.05;100.00;96232.94;1053092;28;19908;-50
2021/07/18 02:35:07;;;;;;;;;;;;;;;17.05;100.00;96223.09;1053102;28;19909;-51
2021/07/18 02:35:38;;;;;;;;;;;;;;;17.03;100.00;96233.16;1053433;28;20325;-51
2021/07/18 02:36:08;;;;;;;;;;;;;;;17.03;100.00;96229.69;1053492;28;20230;-50
2021/07/18 02:36:38;;;;;;;;;;;;;;;16.99;100.00;96229.34;1052880;28;19908;-51